sensor_id;sensor_type;location;lat;lon;timestamp;P1;durP1;ratioP1;P2;durP2;ratioP2
19331;SDS011;9800;52.056;4.466;2022-09-24T06:40:07;84.40;;;78.20;;
19331;SDS011;9800;52.056;4.466;2022-09-24T06:47:59;84.85;;;78.70;;
19331;SDS011;9800;52.056;4.466;2022-09-24T06:50:33;82.10;;;76.10;;
19331;SDS011;9800;52.056;4.466;2022-09-24T07:03:16;78.50;;;72.80;;
19331;SDS011;9800;52.056;4.466;2022-09-24T07:05:52;75.78;;;70.28;;
19331;SDS011;9800;52.056;4.466;2022-09-24T07:16:17;71.45;;;66.07;;
19331;SDS011;9800;52.056;4.466;2022-09-24T07:18:51;69.50;;;64.38;;
19331;SDS011;9800;52.056;4.466;2022-09-24T07:34:08;72.00;;;66.70;;
19331;SDS011;9800;52.056;4.466;2022-09-24T07:41:39;72.95;;;67.53;;
19331;SDS011;9800;52.056;4.466;2022-09-24T07:51:50;68.97;;;63.67;;
19331;SDS011;9800;52.056;4.466;2022-09-24T07:54:25;67.60;;;62.40;;
19331;SDS011;9800;52.056;4.466;2022-09-24T08:04:48;70.07;;;64.78;;
19331;SDS011;9800;52.056;4.466;2022-09-24T08:12:24;76.63;;;71.03;;
19331;SDS011;9800;52.056;4.466;2022-09-24T08:18:06;81.95;;;75.95;;
19331;SDS011;9800;52.056;4.466;2022-09-24T08:25:44;86.93;;;80.53;;
19331;SDS011;9800;52.056;4.466;2022-09-24T08:38:27;69.95;;;64.55;;
19331;SDS011;9800;52.056;4.466;2022-09-24T08:46:08;83.75;;;77.35;;
19331;SDS011;9800;52.056;4.466;2022-09-24T09:01:34;137.93;;;128.82;;
19331;SDS011;9800;52.056;4.466;2022-09-24T09:04:18;135.10;;;126.30;;
19331;SDS011;9800;52.056;4.466;2022-09-24T09:14:33;140.80;;;131.90;;
19331;SDS011;9800;52.056;4.466;2022-09-24T09:24:48;126.22;;;118.22;;
19331;SDS011;9800;52.056;4.466;2022-09-24T09:37:26;116.60;;;109.15;;
19331;SDS011;9800;52.056;4.466;2022-09-24T09:40:08;111.93;;;105.03;;
19331;SDS011;9800;52.056;4.466;2022-09-24T09:42:47;113.38;;;106.35;;
19331;SDS011;9800;52.056;4.466;2022-09-24T09:45:18;110.57;;;102.80;;
19331;SDS011;9800;52.056;4.466;2022-09-24T09:50:29;101.93;;;95.53;;
19331;SDS011;9800;52.056;4.466;2022-09-24T09:53:03;89.70;;;84.00;;
19331;SDS011;9800;52.056;4.466;2022-09-24T09:55:36;85.75;;;80.35;;
19331;SDS011;9800;52.056;4.466;2022-09-24T09:58:09;90.10;;;84.10;;
19331;SDS011;9800;52.056;4.466;2022-09-24T10:00:46;94.10;;;88.20;;
19331;SDS011;9800;52.056;4.466;2022-09-24T10:03:23;104.27;;;97.80;;
19331;SDS011;9800;52.056;4.466;2022-09-24T10:05:55;89.03;;;83.50;;
19331;SDS011;9800;52.056;4.466;2022-09-24T10:08:27;86.03;;;80.68;;
19331;SDS011;9800;52.056;4.466;2022-09-24T10:10:59;86.18;;;80.78;;
19331;SDS011;9800;52.056;4.466;2022-09-24T10:13:29;85.32;;;79.93;;
19331;SDS011;9800;52.056;4.466;2022-09-24T10:15:58;84.63;;;79.23;;
19331;SDS011;9800;52.056;4.466;2022-09-24T10:18:32;81.50;;;76.40;;
19331;SDS011;9800;52.056;4.466;2022-09-24T10:21:09;87.10;;;81.60;;
19331;SDS011;9800;52.056;4.466;2022-09-24T10:23:41;84.35;;;78.97;;
19331;SDS011;9800;52.056;4.466;2022-09-24T10:26:15;83.78;;;78.47;;
19331;SDS011;9800;52.056;4.466;2022-09-24T10:28:45;84.80;;;79.40;;
19331;SDS011;9800;52.056;4.466;2022-09-24T10:31:30;83.32;;;77.97;;
19331;SDS011;9800;52.056;4.466;2022-09-24T10:36:58;85.38;;;79.63;;
19331;SDS011;9800;52.056;4.466;2022-09-24T10:39:31;89.18;;;83.38;;
19331;SDS011;9800;52.056;4.466;2022-09-24T10:42:02;89.57;;;83.68;;
19331;SDS011;9800;52.056;4.466;2022-09-24T10:44:33;85.25;;;79.65;;
19331;SDS011;9800;52.056;4.466;2022-09-24T10:47:09;82.37;;;76.63;;
19331;SDS011;9800;52.056;4.466;2022-09-24T10:49:50;117.35;;;109.40;;
19331;SDS011;9800;52.056;4.466;2022-09-24T10:52:33;77.05;;;71.95;;
19331;SDS011;9800;52.056;4.466;2022-09-24T10:55:13;78.60;;;73.40;;
19331;SDS011;9800;52.056;4.466;2022-09-24T10:58:03;79.82;;;74.43;;
19331;SDS011;9800;52.056;4.466;2022-09-24T11:00:47;78.97;;;73.68;;
19331;SDS011;9800;52.056;4.466;2022-09-24T11:06:32;84.70;;;79.10;;
19331;SDS011;9800;52.056;4.466;2022-09-24T11:09:13;73.30;;;68.40;;
19331;SDS011;9800;52.056;4.466;2022-09-24T11:11:54;77.45;;;72.25;;
19331;SDS011;9800;52.056;4.466;2022-09-24T11:14:36;79.30;;;74.00;;
19331;SDS011;9800;52.056;4.466;2022-09-24T11:17:24;75.80;;;70.60;;
19331;SDS011;9800;52.056;4.466;2022-09-24T11:20:12;76.32;;;71.13;;
19331;SDS011;9800;52.056;4.466;2022-09-24T11:23:05;73.00;;;68.00;;
19331;SDS011;9800;52.056;4.466;2022-09-24T11:25:45;74.00;;;68.95;;
19331;SDS011;9800;52.056;4.466;2022-09-24T11:31:22;66.23;;;61.63;;
19331;SDS011;9800;52.056;4.466;2022-09-24T11:34:03;71.07;;;66.18;;
19331;SDS011;9800;52.056;4.466;2022-09-24T11:36:49;80.00;;;74.50;;
19331;SDS011;9800;52.056;4.466;2022-09-24T11:39:33;85.28;;;79.47;;
19331;SDS011;9800;52.056;4.466;2022-09-24T11:42:19;75.80;;;70.60;;
19331;SDS011;9800;52.056;4.466;2022-09-24T11:47:58;81.47;;;75.82;;
19331;SDS011;9800;52.056;4.466;2022-09-24T11:50:53;71.38;;;66.47;;
19331;SDS011;9800;52.056;4.466;2022-09-24T11:53:32;72.57;;;67.57;;
19331;SDS011;9800;52.056;4.466;2022-09-24T11:56:06;79.78;;;74.30;;
19331;SDS011;9800;52.056;4.466;2022-09-24T11:58:42;84.45;;;78.75;;
19331;SDS011;9800;52.056;4.466;2022-09-24T12:01:15;80.78;;;75.28;;
19331;SDS011;9800;52.056;4.466;2022-09-24T12:03:52;72.75;;;67.75;;
19331;SDS011;9800;52.056;4.466;2022-09-24T12:06:29;79.28;;;73.95;;
19331;SDS011;9800;52.056;4.466;2022-09-24T12:09:02;75.25;;;70.15;;
19331;SDS011;9800;52.056;4.466;2022-09-24T12:11:45;77.78;;;72.57;;
19331;SDS011;9800;52.056;4.466;2022-09-24T12:14:17;80.28;;;74.90;;
19331;SDS011;9800;52.056;4.466;2022-09-24T12:16:51;75.15;;;70.05;;
19331;SDS011;9800;52.056;4.466;2022-09-24T12:19:33;81.20;;;75.70;;
19331;SDS011;9800;52.056;4.466;2022-09-24T12:22:10;84.97;;;79.25;;
19331;SDS011;9800;52.056;4.466;2022-09-24T12:24:41;73.93;;;68.67;;
19331;SDS011;9800;52.056;4.466;2022-09-24T12:27:13;69.05;;;64.35;;
19331;SDS011;9800;52.056;4.466;2022-09-24T12:29:46;67.38;;;62.78;;
19331;SDS011;9800;52.056;4.466;2022-09-24T12:32:35;68.57;;;63.88;;
19331;SDS011;9800;52.056;4.466;2022-09-24T12:38:22;71.13;;;66.25;;
19331;SDS011;9800;52.056;4.466;2022-09-24T12:43:51;73.03;;;67.68;;
19331;SDS011;9800;52.056;4.466;2022-09-24T12:46:26;68.72;;;63.92;;
19331;SDS011;9800;52.056;4.466;2022-09-24T12:48:59;69.15;;;64.25;;
19331;SDS011;9800;52.056;4.466;2022-09-24T12:51:35;71.82;;;66.53;;
19331;SDS011;9800;52.056;4.466;2022-09-24T12:54:19;62.20;;;57.80;;
19331;SDS011;9800;52.056;4.466;2022-09-24T12:56:51;63.38;;;58.88;;
19331;SDS011;9800;52.056;4.466;2022-09-24T12:59:33;61.28;;;56.88;;
19331;SDS011;9800;52.056;4.466;2022-09-24T13:02:13;63.10;;;58.60;;
19331;SDS011;9800;52.056;4.466;2022-09-24T13:04:43;62.78;;;58.28;;
19331;SDS011;9800;52.056;4.466;2022-09-24T13:07:31;62.92;;;58.42;;
19331;SDS011;9800;52.056;4.466;2022-09-24T13:10:17;59.13;;;54.88;;
19331;SDS011;9800;52.056;4.466;2022-09-24T13:12:49;60.63;;;56.25;;
19331;SDS011;9800;52.056;4.466;2022-09-24T13:15:22;62.45;;;57.95;;
19331;SDS011;9800;52.056;4.466;2022-09-24T13:18:04;63.38;;;58.88;;
19331;SDS011;9800;52.056;4.466;2022-09-24T13:20:55;57.17;;;53.08;;
19331;SDS011;9800;52.056;4.466;2022-09-24T13:23:41;55.83;;;51.83;;
19331;SDS011;9800;52.056;4.466;2022-09-24T13:26:14;54.75;;;50.72;;
19331;SDS011;9800;52.056;4.466;2022-09-24T13:28:58;56.03;;;51.90;;
19331;SDS011;9800;52.056;4.466;2022-09-24T13:31:30;50.40;;;46.63;;
19331;SDS011;9800;52.056;4.466;2022-09-24T13:34:11;54.15;;;50.15;;
19331;SDS011;9800;52.056;4.466;2022-09-24T13:36:46;51.50;;;47.67;;
19331;SDS011;9800;52.056;4.466;2022-09-24T13:39:22;50.60;;;46.80;;
19331;SDS011;9800;52.056;4.466;2022-09-24T13:42:02;48.08;;;44.47;;
19331;SDS011;9800;52.056;4.466;2022-09-24T13:44:35;47.97;;;44.38;;
19331;SDS011;9800;52.056;4.466;2022-09-24T13:47:10;47.05;;;43.55;;
19331;SDS011;9800;52.056;4.466;2022-09-24T13:49:43;45.93;;;42.43;;
19331;SDS011;9800;52.056;4.466;2022-09-24T13:52:16;45.65;;;42.25;;
19331;SDS011;9800;52.056;4.466;2022-09-24T13:54:56;45.80;;;42.30;;
19331;SDS011;9800;52.056;4.466;2022-09-24T13:57:30;45.22;;;41.83;;
19331;SDS011;9800;52.056;4.466;2022-09-24T14:00:13;46.45;;;42.95;;
19331;SDS011;9800;52.056;4.466;2022-09-24T14:02:50;45.25;;;41.85;;
19331;SDS011;9800;52.056;4.466;2022-09-24T14:05:21;44.10;;;40.70;;
19331;SDS011;9800;52.056;4.466;2022-09-24T14:07:53;43.17;;;39.88;;
19331;SDS011;9800;52.056;4.466;2022-09-24T14:10:25;43.47;;;40.10;;
19331;SDS011;9800;52.056;4.466;2022-09-24T14:13:00;44.03;;;40.63;;
19331;SDS011;9800;52.056;4.466;2022-09-24T14:15:49;43.80;;;40.40;;
19331;SDS011;9800;52.056;4.466;2022-09-24T14:18:22;42.90;;;39.50;;
19331;SDS011;9800;52.056;4.466;2022-09-24T14:20:53;44.03;;;40.63;;
19331;SDS011;9800;52.056;4.466;2022-09-24T14:23:31;41.00;;;37.70;;
19331;SDS011;9800;52.056;4.466;2022-09-24T14:26:05;43.35;;;39.85;;
19331;SDS011;9800;52.056;4.466;2022-09-24T14:28:40;43.13;;;39.63;;
19331;SDS011;9800;52.056;4.466;2022-09-24T14:31:09;43.97;;;40.38;;
19331;SDS011;9800;52.056;4.466;2022-09-24T14:33:37;47.75;;;43.75;;
19331;SDS011;9800;52.056;4.466;2022-09-24T14:36:08;48.35;;;44.15;;
19331;SDS011;9800;52.056;4.466;2022-09-24T14:38:47;52.80;;;48.38;;
19331;SDS011;9800;52.056;4.466;2022-09-24T14:41:24;59.08;;;54.08;;
19331;SDS011;9800;52.056;4.466;2022-09-24T14:43:57;61.83;;;56.53;;
19331;SDS011;9800;52.056;4.466;2022-09-24T14:46:30;66.97;;;61.38;;
19331;SDS011;9800;52.056;4.466;2022-09-24T14:49:05;64.45;;;59.15;;
19331;SDS011;9800;52.056;4.466;2022-09-24T14:51:49;65.47;;;59.97;;
19331;SDS011;9800;52.056;4.466;2022-09-24T14:54:20;66.40;;;60.80;;
19331;SDS011;9800;52.056;4.466;2022-09-24T14:57:06;68.40;;;62.60;;
19331;SDS011;9800;52.056;4.466;2022-09-24T14:59:37;67.60;;;61.87;;
19331;SDS011;9800;52.056;4.466;2022-09-24T15:02:17;67.43;;;61.63;;
19331;SDS011;9800;52.056;4.466;2022-09-24T15:04:49;73.00;;;66.82;;
19331;SDS011;9800;52.056;4.466;2022-09-24T15:07:24;70.97;;;65.28;;
19331;SDS011;9800;52.056;4.466;2022-09-24T15:09:55;70.82;;;64.95;;
19331;SDS011;9800;52.056;4.466;2022-09-24T15:12:28;71.53;;;65.57;;
19331;SDS011;9800;52.056;4.466;2022-09-24T15:15:00;69.80;;;64.07;;
19331;SDS011;9800;52.056;4.466;2022-09-24T15:17:31;66.53;;;60.88;;
19331;SDS011;9800;52.056;4.466;2022-09-24T15:20:02;68.07;;;62.47;;
19331;SDS011;9800;52.056;4.466;2022-09-24T15:22:32;67.88;;;62.28;;
19331;SDS011;9800;52.056;4.466;2022-09-24T15:25:00;67.82;;;62.03;;
19331;SDS011;9800;52.056;4.466;2022-09-24T15:27:32;68.47;;;62.67;;
19331;SDS011;9800;52.056;4.466;2022-09-24T15:30:04;67.07;;;61.58;;
19331;SDS011;9800;52.056;4.466;2022-09-24T15:32:36;66.37;;;60.87;;
19331;SDS011;9800;52.056;4.466;2022-09-24T15:35:05;65.90;;;60.50;;
19331;SDS011;9800;52.056;4.466;2022-09-24T15:37:36;65.67;;;60.07;;
19331;SDS011;9800;52.056;4.466;2022-09-24T15:40:06;64.30;;;59.00;;
19331;SDS011;9800;52.056;4.466;2022-09-24T15:42:45;64.70;;;59.22;;
19331;SDS011;9800;52.056;4.466;2022-09-24T15:45:17;65.90;;;60.40;;
19331;SDS011;9800;52.056;4.466;2022-09-24T15:47:47;68.43;;;62.58;;
19331;SDS011;9800;52.056;4.466;2022-09-24T15:50:16;77.68;;;61.83;;
19331;SDS011;9800;52.056;4.466;2022-09-24T15:52:47;68.20;;;62.45;;
19331;SDS011;9800;52.056;4.466;2022-09-24T15:55:19;65.67;;;60.27;;
19331;SDS011;9800;52.056;4.466;2022-09-24T15:57:52;62.35;;;57.10;;
19331;SDS011;9800;52.056;4.466;2022-09-24T16:00:21;91.22;;;61.28;;
19331;SDS011;9800;52.056;4.466;2022-09-24T16:02:51;64.30;;;59.00;;
19331;SDS011;9800;52.056;4.466;2022-09-24T16:05:22;63.08;;;57.67;;
19331;SDS011;9800;52.056;4.466;2022-09-24T16:07:53;62.30;;;57.00;;
19331;SDS011;9800;52.056;4.466;2022-09-24T16:10:22;63.15;;;57.90;;
19331;SDS011;9800;52.056;4.466;2022-09-24T16:12:54;64.93;;;59.33;;
19331;SDS011;9800;52.056;4.466;2022-09-24T16:15:23;66.03;;;60.53;;
19331;SDS011;9800;52.056;4.466;2022-09-24T16:17:51;62.53;;;57.43;;
19331;SDS011;9800;52.056;4.466;2022-09-24T16:20:20;62.95;;;57.75;;
19331;SDS011;9800;52.056;4.466;2022-09-24T16:22:49;62.80;;;57.67;;
19331;SDS011;9800;52.056;4.466;2022-09-24T16:25:17;62.72;;;57.33;;
19331;SDS011;9800;52.056;4.466;2022-09-24T16:27:46;62.40;;;57.10;;
19331;SDS011;9800;52.056;4.466;2022-09-24T16:30:18;58.42;;;53.53;;
19331;SDS011;9800;52.056;4.466;2022-09-24T16:32:47;58.78;;;53.78;;
19331;SDS011;9800;52.056;4.466;2022-09-24T16:35:16;56.25;;;51.55;;
19331;SDS011;9800;52.056;4.466;2022-09-24T16:37:45;55.85;;;50.80;;
19331;SDS011;9800;52.056;4.466;2022-09-24T16:40:14;56.07;;;50.97;;
19331;SDS011;9800;52.056;4.466;2022-09-24T16:42:42;57.10;;;52.30;;
19331;SDS011;9800;52.056;4.466;2022-09-24T16:45:12;55.50;;;50.78;;
19331;SDS011;9800;52.056;4.466;2022-09-24T16:47:44;52.72;;;47.97;;
19331;SDS011;9800;52.056;4.466;2022-09-24T16:50:13;54.13;;;49.72;;
19331;SDS011;9800;52.056;4.466;2022-09-24T16:52:44;52.60;;;48.35;;
19331;SDS011;9800;52.056;4.466;2022-09-24T16:55:14;51.63;;;47.03;;
19331;SDS011;9800;52.056;4.466;2022-09-24T16:57:43;50.65;;;46.53;;
19331;SDS011;9800;52.056;4.466;2022-09-24T17:00:12;51.33;;;47.22;;
19331;SDS011;9800;52.056;4.466;2022-09-24T17:02:43;51.55;;;47.25;;
19331;SDS011;9800;52.056;4.466;2022-09-24T17:05:14;48.72;;;44.83;;
19331;SDS011;9800;52.056;4.466;2022-09-24T17:07:43;54.22;;;50.03;;
19331;SDS011;9800;52.056;4.466;2022-09-24T17:10:12;52.85;;;48.75;;
19331;SDS011;9800;52.056;4.466;2022-09-24T17:17:46;52.83;;;48.83;;
19331;SDS011;9800;52.056;4.466;2022-09-24T17:20:16;53.88;;;49.88;;
19331;SDS011;9800;52.056;4.466;2022-09-24T17:25:16;53.78;;;49.88;;
19331;SDS011;9800;52.056;4.466;2022-09-24T17:35:20;47.20;;;43.40;;
19331;SDS011;9800;52.056;4.466;2022-09-24T17:37:49;47.53;;;44.10;;
19331;SDS011;9800;52.056;4.466;2022-09-24T17:45:20;47.55;;;44.05;;
19331;SDS011;9800;52.056;4.466;2022-09-24T17:47:50;46.30;;;43.00;;
19331;SDS011;9800;52.056;4.466;2022-09-24T17:50:27;44.83;;;41.63;;
19331;SDS011;9800;52.056;4.466;2022-09-24T17:52:57;45.35;;;42.15;;
19331;SDS011;9800;52.056;4.466;2022-09-24T17:55:27;43.83;;;40.72;;
19331;SDS011;9800;52.056;4.466;2022-09-24T18:00:26;48.88;;;45.35;;
19331;SDS011;9800;52.056;4.466;2022-09-24T18:02:55;34.40;;;31.70;;
19331;SDS011;9800;52.056;4.466;2022-09-24T18:07:56;33.60;;;30.80;;
19331;SDS011;9800;52.056;4.466;2022-09-24T18:10:25;33.73;;;31.23;;
19331;SDS011;9800;52.056;4.466;2022-09-24T18:17:54;38.13;;;35.22;;
19331;SDS011;9800;52.056;4.466;2022-09-24T18:25:36;34.75;;;31.75;;
19331;SDS011;9800;52.056;4.466;2022-09-24T18:41:05;34.90;;;32.10;;
19331;SDS011;9800;52.056;4.466;2022-09-24T19:01:30;33.13;;;30.73;;
19331;SDS011;9800;52.056;4.466;2022-09-24T19:03:59;32.85;;;30.50;;
19331;SDS011;9800;52.056;4.466;2022-09-24T19:06:34;34.30;;;31.70;;
19331;SDS011;9800;52.056;4.466;2022-09-24T19:09:04;31.97;;;29.67;;
19331;SDS011;9800;52.056;4.466;2022-09-24T19:11:39;32.70;;;30.30;;
19331;SDS011;9800;52.056;4.466;2022-09-24T19:14:09;33.10;;;30.63;;
19331;SDS011;9800;52.056;4.466;2022-09-24T19:16:44;32.03;;;29.73;;
19331;SDS011;9800;52.056;4.466;2022-09-24T19:19:14;31.75;;;29.45;;
19331;SDS011;9800;52.056;4.466;2022-09-24T19:21:43;32.67;;;30.38;;
19331;SDS011;9800;52.056;4.466;2022-09-24T19:24:14;32.00;;;29.70;;
19331;SDS011;9800;52.056;4.466;2022-09-24T19:26:44;32.65;;;30.35;;
19331;SDS011;9800;52.056;4.466;2022-09-24T19:29:13;32.90;;;30.50;;
19331;SDS011;9800;52.056;4.466;2022-09-24T19:31:45;34.20;;;31.80;;
19331;SDS011;9800;52.056;4.466;2022-09-24T19:34:17;34.10;;;31.70;;
19331;SDS011;9800;52.056;4.466;2022-09-24T19:36:46;34.70;;;32.30;;
19331;SDS011;9800;52.056;4.466;2022-09-24T19:39:15;33.95;;;31.55;;
19331;SDS011;9800;52.056;4.466;2022-09-24T19:41:50;33.70;;;31.30;;
19331;SDS011;9800;52.056;4.466;2022-09-24T19:44:19;34.05;;;31.60;;
19331;SDS011;9800;52.056;4.466;2022-09-24T19:46:51;34.28;;;31.77;;
19331;SDS011;9800;52.056;4.466;2022-09-24T19:49:20;33.88;;;31.42;;
19331;SDS011;9800;52.056;4.466;2022-09-24T19:51:49;33.03;;;30.67;;
19331;SDS011;9800;52.056;4.466;2022-09-24T19:54:18;33.70;;;31.20;;
19331;SDS011;9800;52.056;4.466;2022-09-24T19:56:47;34.50;;;32.10;;
19331;SDS011;9800;52.056;4.466;2022-09-24T19:59:17;35.03;;;32.63;;
19331;SDS011;9800;52.056;4.466;2022-09-24T20:01:46;34.63;;;32.13;;
19331;SDS011;9800;52.056;4.466;2022-09-24T20:04:18;31.77;;;29.58;;
19331;SDS011;9800;52.056;4.466;2022-09-24T20:06:57;33.53;;;31.23;;
19331;SDS011;9800;52.056;4.466;2022-09-24T20:09:26;33.33;;;31.02;;
19331;SDS011;9800;52.056;4.466;2022-09-24T20:11:57;30.90;;;28.70;;
19331;SDS011;9800;52.056;4.466;2022-09-24T20:14:27;31.30;;;29.10;;
19331;SDS011;9800;52.056;4.466;2022-09-24T20:17:02;30.98;;;28.88;;
19331;SDS011;9800;52.056;4.466;2022-09-24T20:19:39;31.05;;;28.85;;
19331;SDS011;9800;52.056;4.466;2022-09-24T20:22:15;29.92;;;27.83;;
19331;SDS011;9800;52.056;4.466;2022-09-24T20:24:44;30.35;;;28.25;;
19331;SDS011;9800;52.056;4.466;2022-09-24T20:27:21;28.60;;;26.60;;
19331;SDS011;9800;52.056;4.466;2022-09-24T20:30:06;29.80;;;27.70;;
19331;SDS011;9800;52.056;4.466;2022-09-24T20:32:38;29.38;;;27.27;;
19331;SDS011;9800;52.056;4.466;2022-09-24T20:35:12;29.27;;;27.17;;
19331;SDS011;9800;52.056;4.466;2022-09-24T20:37:45;28.80;;;26.70;;
19331;SDS011;9800;52.056;4.466;2022-09-24T20:40:18;29.70;;;27.60;;
19331;SDS011;9800;52.056;4.466;2022-09-24T20:42:49;31.30;;;29.10;;
19331;SDS011;9800;52.056;4.466;2022-09-24T20:45:21;29.88;;;27.75;;
19331;SDS011;9800;52.056;4.466;2022-09-24T20:47:56;30.23;;;28.02;;
19331;SDS011;9800;52.056;4.466;2022-09-24T20:50:33;29.73;;;27.63;;
19331;SDS011;9800;52.056;4.466;2022-09-24T20:53:08;29.30;;;27.20;;
19331;SDS011;9800;52.056;4.466;2022-09-24T20:55:42;29.70;;;27.60;;
19331;SDS011;9800;52.056;4.466;2022-09-24T20:58:11;29.77;;;27.67;;
19331;SDS011;9800;52.056;4.466;2022-09-24T21:00:40;29.02;;;26.92;;
19331;SDS011;9800;52.056;4.466;2022-09-24T21:03:20;28.13;;;26.13;;
19331;SDS011;9800;52.056;4.466;2022-09-24T21:08:46;28.42;;;26.42;;
19331;SDS011;9800;52.056;4.466;2022-09-24T21:11:16;28.42;;;26.42;;
19331;SDS011;9800;52.056;4.466;2022-09-24T21:13:51;28.20;;;26.20;;
19331;SDS011;9800;52.056;4.466;2022-09-24T21:16:23;28.55;;;26.55;;
19331;SDS011;9800;52.056;4.466;2022-09-24T21:18:58;28.00;;;26.00;;
19331;SDS011;9800;52.056;4.466;2022-09-24T21:21:37;29.15;;;27.15;;
19331;SDS011;9800;52.056;4.466;2022-09-24T21:24:08;32.50;;;30.30;;
19331;SDS011;9800;52.056;4.466;2022-09-24T21:26:45;33.67;;;31.38;;
19331;SDS011;9800;52.056;4.466;2022-09-24T21:29:20;32.80;;;30.60;;
19331;SDS011;9800;52.056;4.466;2022-09-24T21:31:53;31.27;;;29.17;;
19331;SDS011;9800;52.056;4.466;2022-09-24T21:34:29;31.40;;;29.30;;
19331;SDS011;9800;52.056;4.466;2022-09-24T21:37:10;30.48;;;28.38;;
19331;SDS011;9800;52.056;4.466;2022-09-24T21:40:02;38.97;;;36.38;;
19331;SDS011;9800;52.056;4.466;2022-09-24T21:42:34;37.97;;;35.37;;
19331;SDS011;9800;52.056;4.466;2022-09-24T21:45:14;36.40;;;33.90;;
19331;SDS011;9800;52.056;4.466;2022-09-24T21:47:46;36.25;;;33.75;;
19331;SDS011;9800;52.056;4.466;2022-09-24T21:50:37;37.95;;;35.35;;
19331;SDS011;9800;52.056;4.466;2022-09-24T21:53:27;37.97;;;35.38;;
19331;SDS011;9800;52.056;4.466;2022-09-24T21:55:59;40.03;;;37.22;;
19331;SDS011;9800;52.056;4.466;2022-09-24T21:58:31;40.15;;;37.35;;
19331;SDS011;9800;52.056;4.466;2022-09-24T22:01:05;37.80;;;35.20;;
19331;SDS011;9800;52.056;4.466;2022-09-24T22:03:42;39.08;;;36.38;;
19331;SDS011;9800;52.056;4.466;2022-09-24T22:06:16;44.45;;;41.45;;
19331;SDS011;9800;52.056;4.466;2022-09-24T22:08:48;45.15;;;42.15;;
19331;SDS011;9800;52.056;4.466;2022-09-24T22:11:20;49.95;;;46.65;;
19331;SDS011;9800;52.056;4.466;2022-09-24T22:13:53;48.63;;;45.42;;
19331;SDS011;9800;52.056;4.466;2022-09-24T22:16:27;52.35;;;48.85;;
19331;SDS011;9800;52.056;4.466;2022-09-24T22:18:57;51.97;;;48.58;;
19331;SDS011;9800;52.056;4.466;2022-09-24T22:21:28;54.95;;;51.35;;
19331;SDS011;9800;52.056;4.466;2022-09-24T22:24:04;57.22;;;53.53;;
19331;SDS011;9800;52.056;4.466;2022-09-24T22:26:38;53.73;;;50.13;;
19331;SDS011;9800;52.056;4.466;2022-09-24T22:29:09;56.13;;;52.42;;
19331;SDS011;9800;52.056;4.466;2022-09-24T22:31:39;57.88;;;54.08;;
19331;SDS011;9800;52.056;4.466;2022-09-24T22:34:10;58.70;;;54.80;;
19331;SDS011;9800;52.056;4.466;2022-09-24T22:36:52;59.58;;;55.28;;
19331;SDS011;9800;52.056;4.466;2022-09-24T22:39:24;54.20;;;50.60;;
19331;SDS011;9800;52.056;4.466;2022-09-24T22:41:55;55.45;;;51.80;;
19331;SDS011;9800;52.056;4.466;2022-09-24T22:44:24;58.10;;;54.30;;
19331;SDS011;9800;52.056;4.466;2022-09-24T22:46:56;55.58;;;51.90;;
19331;SDS011;9800;52.056;4.466;2022-09-24T22:49:25;57.40;;;53.60;;
19331;SDS011;9800;52.056;4.466;2022-09-24T22:51:55;59.03;;;55.15;;
19331;SDS011;9800;52.056;4.466;2022-09-24T22:54:35;56.35;;;52.65;;
19331;SDS011;9800;52.056;4.466;2022-09-24T22:57:07;59.20;;;55.30;;
19331;SDS011;9800;52.056;4.466;2022-09-24T22:59:37;59.45;;;55.55;;
19331;SDS011;9800;52.056;4.466;2022-09-24T23:02:06;58.57;;;54.77;;
19331;SDS011;9800;52.056;4.466;2022-09-24T23:04:35;58.92;;;55.05;;
19331;SDS011;9800;52.056;4.466;2022-09-24T23:07:05;61.30;;;57.30;;
19331;SDS011;9800;52.056;4.466;2022-09-24T23:09:37;61.03;;;57.03;;
19331;SDS011;9800;52.056;4.466;2022-09-24T23:12:12;62.55;;;58.45;;
19331;SDS011;9800;52.056;4.466;2022-09-24T23:14:44;61.95;;;57.85;;
19331;SDS011;9800;52.056;4.466;2022-09-24T23:17:16;63.53;;;59.33;;
19331;SDS011;9800;52.056;4.466;2022-09-24T23:19:46;64.75;;;60.45;;
19331;SDS011;9800;52.056;4.466;2022-09-24T23:22:17;65.57;;;61.28;;
19331;SDS011;9800;52.056;4.466;2022-09-24T23:24:50;65.72;;;61.42;;
19331;SDS011;9800;52.056;4.466;2022-09-24T23:27:25;66.57;;;62.17;;
19331;SDS011;9800;52.056;4.466;2022-09-24T23:29:56;66.10;;;61.70;;
19331;SDS011;9800;52.056;4.466;2022-09-24T23:32:26;62.55;;;58.45;;
19331;SDS011;9800;52.056;4.466;2022-09-24T23:34:57;60.38;;;56.38;;
19331;SDS011;9800;52.056;4.466;2022-09-24T23:37:27;61.45;;;57.35;;
19331;SDS011;9800;52.056;4.466;2022-09-24T23:39:59;64.73;;;60.43;;
19331;SDS011;9800;52.056;4.466;2022-09-24T23:42:28;61.53;;;57.42;;
19331;SDS011;9800;52.056;4.466;2022-09-24T23:44:57;61.78;;;57.67;;
19331;SDS011;9800;52.056;4.466;2022-09-24T23:47:29;63.75;;;59.55;;
19331;SDS011;9800;52.056;4.466;2022-09-24T23:49:58;65.65;;;61.30;;
19331;SDS011;9800;52.056;4.466;2022-09-24T23:52:29;65.90;;;61.50;;
19331;SDS011;9800;52.056;4.466;2022-09-24T23:57:45;65.57;;;61.17;;
